Aberdeen, Pennsylvania
Current Conditions -  °F | °C
As of 10:56 AM on Sunday 21 Dec 2014 (Local Time) from KMDT Reporting Station
Overcast Overcast  
Wind Chill: 27°   Ceiling: 2800
Heat Index: 33°   Visibility: 7mi
Dew Point: 23°   Wind: 7mph
Humidity: 66%   Direction: 300°WNW
Pressure: 30.35"   Gusts: NA
Location:  40.1674°N, 76.6045°W
Report Text: KMDT 211556Z 30006KT 7SM OVC028 01/M05 A3035 RMK AO2 SLP280 T00061050 $
Loading
Personal Weather Stations






























Interactive Weather Map New forecast layout! Learn more

10-Day Weather Forecast

Advertisements
Track Severe Weather on mobile